Gillmore, Kentucky
Current Conditions -  °F | °C
As of 8:53 PM on Tuesday 25 Nov 2014 (Local Time) from KJKL Reporting Station
Clear Clear  
Wind Chill: 39°   Ceiling: Unl
Heat Index: 42°   Visibility: 10mi
Dew Point: 27°   Wind: 5mph
Humidity: 55%   Direction: NA
Pressure: 30.13"   Gusts: NA
Location:  37.7524°N, 83.5047°W
Report Text: KJKL 260153Z AUTO VRB04KT 10SM CLR 06/M03 A3013 RMK AO2 SLP208 T00561028
Loading
Personal Weather Stations






























Interactive Weather Map New forecast layout! Learn more

10-Day Weather Forecast

Advertisements
Track Severe Weather on mobile